Time;durP1;ratioP1;P1;durP2;ratioP2;P2;SDS_P1;SDS_P2;PMS_P1;PMS_P2;Temp;Humidity;BMP_temperature;BMP_pressure;BME280_temperature;BME280_humidity;BME280_pressure;Samples;Min_cycle;Max_cycle;Signal;HPM_P1;HPM_P2
2021/08/09 00:02:13;;;;;;;14.88;3.10;;;14.90;99.90;;;;;;4995506;28;20109;-74
2021/08/09 00:04:39;;;;;;;17.25;4.18;;;14.90;99.90;;;;;;4994401;28;20045;-74
2021/08/09 00:07:07;;;;;;;15.82;3.70;;;14.90;99.90;;;;;;4994927;28;20459;-74
2021/08/09 00:09:33;;;;;;;20.40;4.07;;;14.90;99.90;;;;;;4995187;28;20023;-74
2021/08/09 00:12:00;;;;;;;18.67;4.13;;;14.90;99.90;;;;;;4994207;28;20501;-73
2021/08/09 00:14:25;;;;;;;13.50;3.90;;;15.00;99.90;;;;;;4995006;28;20023;-73
2021/08/09 00:16:51;;;;;;;15.20;3.83;;;15.00;99.90;;;;;;4994878;28;20023;-73
2021/08/09 00:19:16;;;;;;;14.10;4.35;;;15.00;99.90;;;;;;4994224;28;20026;-74
2021/08/09 00:21:42;;;;;;;19.20;3.90;;;15.10;99.90;;;;;;4994784;28;20121;-73
2021/08/09 00:24:07;;;;;;;14.27;3.55;;;15.10;99.90;;;;;;4994820;28;20081;-74
2021/08/09 00:26:34;;;;;;;16.63;3.90;;;15.00;99.90;;;;;;4994004;28;20042;-74
2021/08/09 00:29:00;;;;;;;17.75;4.18;;;15.10;99.90;;;;;;4993850;28;20067;-74
2021/08/09 00:31:25;;;;;;;13.15;3.17;;;14.90;99.90;;;;;;4993541;28;20479;-74
2021/08/09 00:33:51;;;;;;;20.42;5.40;;;14.90;99.90;;;;;;4993307;28;20027;-73
2021/08/09 00:36:17;;;;;;;18.60;3.67;;;14.80;99.90;;;;;;4993878;28;20037;-74
2021/08/09 00:38:42;;;;;;;17.55;3.83;;;14.80;99.90;;;;;;4993821;28;20101;-73
2021/08/09 00:41:08;;;;;;;21.08;4.68;;;14.80;99.90;;;;;;4992973;28;20057;-75
2021/08/09 00:43:33;;;;;;;15.07;3.72;;;14.70;99.90;;;;;;4993977;28;20439;-73
2021/08/09 00:46:04;;;;;;;11.60;3.30;;;14.70;99.90;;;;;;4993568;28;20034;-73
2021/08/09 00:48:31;;;;;;;12.70;2.80;;;14.70;99.90;;;;;;4993077;28;20109;-74
2021/08/09 00:50:57;;;;;;;16.38;4.60;;;14.70;99.90;;;;;;4993630;28;20042;-73
2021/08/09 00:53:23;;;;;;;17.08;3.47;;;14.70;99.90;;;;;;4991901;28;20445;-73
2021/08/09 00:55:51;;;;;;;13.82;3.25;;;14.70;99.90;;;;;;4993213;28;20028;-73
2021/08/09 00:58:17;;;;;;;11.05;3.10;;;14.70;99.90;;;;;;4993595;28;20471;-75
2021/08/09 01:00:43;;;;;;;17.90;3.60;;;14.60;99.90;;;;;;4993478;28;20062;-75
2021/08/09 01:03:08;;;;;;;15.68;3.60;;;14.60;99.90;;;;;;4994015;28;20014;-73
2021/08/09 01:05:34;;;;;;;20.73;3.72;;;14.60;99.90;;;;;;4995074;28;20037;-73
2021/08/09 01:08:26;;;;;;;12.75;3.55;;;14.60;99.90;;;;;;4993121;28;20037;-74
2021/08/09 01:11:14;;;;;;;11.90;3.72;;;14.60;99.90;;;;;;4993924;28;20030;-74
2021/08/09 01:14:19;;;;;;;14.10;3.17;;;14.60;99.90;;;;;;4993889;28;20517;-75
2021/08/09 01:16:45;;;;;;;16.33;3.55;;;14.50;99.90;;;;;;4992255;28;20177;-73
2021/08/09 01:19:53;;;;;;;20.13;4.13;;;14.50;99.90;;;;;;4993907;28;20029;-74
2021/08/09 01:22:25;;;;;;;13.98;3.40;;;14.50;99.90;;;;;;4994536;28;20105;-74
2021/08/09 01:25:37;;;;;;;18.05;3.83;;;14.50;99.90;;;;;;4993671;28;20126;-74
2021/08/09 01:28:05;;;;;;;11.30;3.75;;;14.40;99.90;;;;;;4993424;28;20033;-73
2021/08/09 01:30:32;;;;;;;16.75;4.32;;;14.40;99.90;;;;;;4993332;28;20114;-74
2021/08/09 01:32:58;;;;;;;16.98;4.05;;;14.40;99.90;;;;;;4993267;28;20034;-74
2021/08/09 01:35:26;;;;;;;11.02;3.20;;;14.40;99.90;;;;;;4992681;28;20030;-73
2021/08/09 01:37:59;;;;;;;9.55;3.45;;;14.40;99.90;;;;;;4993355;28;20034;-74
2021/08/09 01:40:26;;;;;;;13.20;3.10;;;14.30;99.90;;;;;;4993280;28;20026;-74
2021/08/09 01:42:52;;;;;;;21.60;4.03;;;14.30;99.90;;;;;;4992537;28;20057;-74
2021/08/09 01:45:20;;;;;;;22.52;4.80;;;14.30;99.90;;;;;;4993128;28;20100;-74
2021/08/09 01:47:46;;;;;;;17.15;4.10;;;14.30;99.90;;;;;;4993206;28;20023;-73
2021/08/09 01:50:13;;;;;;;22.92;4.32;;;14.30;99.90;;;;;;4978717;28;20049;-74
2021/08/09 01:52:40;;;;;;;13.85;3.65;;;14.30;99.90;;;;;;4985819;28;20046;-75
2021/08/09 01:55:07;;;;;;;13.25;3.50;;;14.30;99.90;;;;;;4986827;28;20026;-74
2021/08/09 01:57:34;;;;;;;14.85;4.03;;;14.30;99.90;;;;;;4978484;28;20487;-74
2021/08/09 02:00:01;;;;;;;15.73;3.80;;;14.30;99.90;;;;;;4993180;28;20026;-73
2021/08/09 02:02:28;;;;;;;16.50;3.45;;;14.30;99.90;;;;;;4993084;28;20034;-74
2021/08/09 02:04:53;;;;;;;15.25;3.72;;;14.30;99.90;;;;;;4991863;28;20023;-75
2021/08/09 02:07:19;;;;;;;15.10;4.75;;;14.30;99.90;;;;;;4993023;28;20078;-74
2021/08/09 02:09:45;;;;;;;13.75;3.88;;;14.30;99.90;;;;;;4992476;28;20034;-74
2021/08/09 02:12:11;;;;;;;14.80;3.60;;;14.30;99.90;;;;;;4992212;28;20129;-73
2021/08/09 02:14:46;;;;;;;18.48;4.63;;;14.30;99.90;;;;;;4992817;28;20022;-75
2021/08/09 02:17:15;;;;;;;12.15;3.45;;;14.30;99.90;;;;;;4993005;28;20027;-75
2021/08/09 02:20:06;;;;;;;11.95;3.50;;;14.40;99.90;;;;;;4991808;28;20512;-74
2021/08/09 02:22:38;;;;;;;12.27;3.88;;;14.40;99.90;;;;;;4983207;28;20050;-75
2021/08/09 02:25:11;;;;;;;15.70;3.67;;;14.40;99.90;;;;;;4971990;28;20118;-75
2021/08/09 02:27:55;;;;;;;15.40;4.63;;;14.40;99.90;;;;;;4973489;28;20077;-74
2021/08/09 02:30:24;;;;;;;14.30;3.65;;;14.40;99.90;;;;;;4972974;28;20498;-74
2021/08/09 02:32:52;;;;;;;12.50;3.45;;;14.40;99.90;;;;;;4958615;28;20057;-74
2021/08/09 02:35:20;;;;;;;16.63;3.97;;;14.50;99.90;;;;;;4973209;28;20475;-75
2021/08/09 02:37:47;;;;;;;17.20;3.17;;;14.50;99.90;;;;;;4973119;28;20117;-74
2021/08/09 02:40:14;;;;;;;18.92;4.78;;;14.50;99.90;;;;;;4966589;28;20023;-74
2021/08/09 02:42:40;;;;;;;14.40;3.72;;;14.40;99.90;;;;;;4964536;28;20030;-74
2021/08/09 02:45:07;;;;;;;16.48;3.80;;;14.50;99.90;;;;;;4972630;28;20027;-74
2021/08/09 02:47:33;;;;;;;15.55;3.55;;;14.40;99.90;;;;;;4972313;28;20031;-75
2021/08/09 02:50:00;;;;;;;20.67;4.30;;;14.40;99.90;;;;;;4972697;28;20039;-75
2021/08/09 02:52:27;;;;;;;12.75;3.88;;;14.40;99.90;;;;;;4973279;28;20043;-74
2021/08/09 02:54:54;;;;;;;17.23;3.40;;;14.40;99.90;;;;;;4972112;28;20019;-75
2021/08/09 02:57:22;;;;;;;16.48;4.57;;;14.40;99.90;;;;;;4972676;28;20038;-76
2021/08/09 02:59:48;;;;;;;13.20;4.10;;;14.40;99.90;;;;;;4972441;28;20058;-76
2021/08/09 03:02:15;;;;;;;20.77;5.28;;;14.40;99.90;;;;;;4973089;28;20035;-75
2021/08/09 03:04:41;;;;;;;15.60;3.25;;;14.40;99.90;;;;;;4973065;28;20019;-72
2021/08/09 03:07:08;;;;;;;9.85;4.15;;;14.40;99.90;;;;;;4970616;28;20030;-73
2021/08/09 03:09:35;;;;;;;16.88;3.53;;;14.50;99.90;;;;;;4973267;28;20023;-73
2021/08/09 03:12:01;;;;;;;14.68;3.92;;;14.50;99.90;;;;;;4972687;28;20121;-73
2021/08/09 03:14:31;;;;;;;15.77;4.18;;;14.50;99.90;;;;;;4958799;28;20027;-73
2021/08/09 03:16:59;;;;;;;19.95;3.65;;;14.50;99.90;;;;;;4974464;28;20026;-75
2021/08/09 03:19:24;;;;;;;14.35;3.95;;;15.00;99.90;;;;;;4976590;28;20023;-74
2021/08/09 03:21:55;;;;;;;20.35;4.53;;;14.50;99.90;;;;;;4975839;28;20033;-74
2021/08/09 03:24:22;;;;;;;18.40;3.80;;;14.50;99.90;;;;;;4976510;28;20081;-74
2021/08/09 03:26:48;;;;;;;15.60;4.60;;;14.40;99.90;;;;;;4976180;28;20368;-73
2021/08/09 03:29:14;;;;;;;15.38;3.72;;;14.40;99.90;;;;;;4975657;28;20030;-73
2021/08/09 03:31:40;;;;;;;15.90;4.07;;;14.50;99.90;;;;;;4969959;28;20042;-73
2021/08/09 03:34:05;;;;;;;14.70;3.33;;;14.40;99.90;;;;;;4969202;28;20034;-74
2021/08/09 03:36:31;;;;;;;22.30;4.07;;;14.40;99.90;;;;;;4975708;28;20015;-74
2021/08/09 03:38:56;;;;;;;12.45;3.55;;;14.40;99.90;;;;;;4976060;28;20553;-74
2021/08/09 03:41:22;;;;;;;12.00;3.33;;;14.40;99.90;;;;;;4976144;28;20378;-74
2021/08/09 03:43:47;;;;;;;13.32;4.05;;;14.40;99.90;;;;;;4983604;28;20092;-74
2021/08/09 03:46:14;;;;;;;16.45;4.00;;;14.40;99.90;;;;;;4981391;28;20148;-74
2021/08/09 03:48:40;;;;;;;19.20;3.70;;;14.40;99.90;;;;;;4976179;28;20106;-73
2021/08/09 03:51:06;;;;;;;11.10;2.92;;;14.30;99.90;;;;;;4975009;28;20109;-75
2021/08/09 03:53:31;;;;;;;10.90;3.15;;;14.40;99.90;;;;;;4974600;28;20151;-75
2021/08/09 03:55:57;;;;;;;13.45;3.72;;;14.30;99.90;;;;;;4975570;28;20076;-75
2021/08/09 03:58:22;;;;;;;11.52;4.03;;;14.40;99.90;;;;;;4974867;28;20071;-74
2021/08/09 04:00:48;;;;;;;19.65;3.83;;;14.30;99.90;;;;;;4975677;28;20023;-73
2021/08/09 04:03:13;;;;;;;12.38;3.35;;;14.40;99.90;;;;;;4975086;28;20472;-73
2021/08/09 04:05:39;;;;;;;12.65;3.03;;;14.40;99.90;;;;;;4975819;28;20406;-75
2021/08/09 04:08:05;;;;;;;11.27;3.58;;;14.30;99.90;;;;;;4975430;28;20459;-74
2021/08/09 04:10:30;;;;;;;19.55;4.28;;;14.30;99.90;;;;;;4974712;28;20018;-73
2021/08/09 04:12:56;;;;;;;11.65;2.90;;;14.40;99.90;;;;;;4975013;28;20431;-74
2021/08/09 04:15:21;;;;;;;7.75;3.50;;;14.40;99.90;;;;;;4975275;28;20419;-74
2021/08/09 04:17:47;;;;;;;17.55;2.72;;;14.40;99.90;;;;;;4974538;28;20062;-74
2021/08/09 04:20:13;;;;;;;17.85;3.03;;;14.40;99.90;;;;;;4975477;28;20375;-73
2021/08/09 04:22:38;;;;;;;12.45;3.75;;;14.40;99.90;;;;;;4981726;28;20026;-74
2021/08/09 04:25:04;;;;;;;10.45;2.95;;;14.30;99.90;;;;;;4981562;28;20447;-74
2021/08/09 04:27:30;;;;;;;12.05;3.90;;;14.40;99.90;;;;;;4974479;28;20027;-73
2021/08/09 04:29:56;;;;;;;13.30;3.63;;;14.40;99.90;;;;;;4974378;28;20483;-74
2021/08/09 04:32:22;;;;;;;11.75;3.55;;;14.40;99.90;;;;;;4961840;28;20078;-74
2021/08/09 04:34:47;;;;;;;12.68;3.50;;;14.40;99.90;;;;;;4972971;28;20027;-74
2021/08/09 04:37:13;;;;;;;17.35;4.05;;;14.30;99.90;;;;;;4974780;28;20442;-74
2021/08/09 04:39:39;;;;;;;10.32;3.20;;;14.30;99.90;;;;;;4973739;28;20031;-74
2021/08/09 04:42:05;;;;;;;22.33;4.10;;;14.30;99.90;;;;;;4974540;28;20102;-74
2021/08/09 04:44:31;;;;;;;11.35;2.95;;;14.40;99.90;;;;;;4974372;28;20026;-74
2021/08/09 04:46:57;;;;;;;29.45;4.70;;;14.30;99.90;;;;;;4973629;28;20026;-74
2021/08/09 04:49:26;;;;;;;10.60;3.15;;;14.30;99.90;;;;;;4974361;28;20054;-75
2021/08/09 04:51:53;;;;;;;15.55;3.70;;;14.40;99.90;;;;;;4973456;28;20452;-74
2021/08/09 04:54:18;;;;;;;17.45;4.00;;;14.40;99.90;;;;;;4973344;28;20022;-75
2021/08/09 04:56:44;;;;;;;38.63;5.53;;;14.40;99.90;;;;;;4974035;28;20053;-75
2021/08/09 04:59:10;;;;;;;13.63;3.17;;;14.40;99.90;;;;;;4976793;28;20073;-75
2021/08/09 05:01:35;;;;;;;7.50;3.10;;;14.40;99.90;;;;;;4974106;28;20436;-74
2021/08/09 05:04:02;;;;;;;18.80;4.30;;;14.40;99.90;;;;;;4974420;28;20026;-74
2021/08/09 05:06:28;;;;;;;10.73;3.40;;;14.40;99.90;;;;;;4973973;28;20479;-75
2021/08/09 05:08:53;;;;;;;18.88;4.30;;;14.40;99.90;;;;;;4974330;28;20059;-74
2021/08/09 05:11:20;;;;;;;11.63;3.33;;;14.40;99.90;;;;;;4974931;28;20035;-74
2021/08/09 05:13:45;;;;;;;23.70;5.32;;;14.50;99.90;;;;;;4973860;28;20073;-75
2021/08/09 05:16:11;;;;;;;8.50;3.40;;;14.50;99.90;;;;;;4974762;28;20031;-75
2021/08/09 05:18:36;;;;;;;10.80;4.07;;;14.50;99.90;;;;;;4974215;28;20459;-75
2021/08/09 05:21:02;;;;;;;24.05;5.47;;;14.50;99.90;;;;;;4973599;28;20031;-74
2021/08/09 05:23:28;;;;;;;12.93;3.70;;;14.50;99.90;;;;;;4974523;28;20027;-75
2021/08/09 05:25:53;;;;;;;10.23;3.55;;;14.50;99.90;;;;;;4974666;28;20026;-73
2021/08/09 05:28:19;;;;;;;10.55;3.10;;;14.50;99.90;;;;;;4973689;28;20382;-73
2021/08/09 05:30:46;;;;;;;9.20;3.80;;;14.50;99.90;;;;;;4970017;28;20070;-74
2021/08/09 05:33:12;;;;;;;16.35;3.67;;;14.40;99.90;;;;;;4956582;28;20550;-74
2021/08/09 05:35:38;;;;;;;16.52;4.65;;;14.50;99.90;;;;;;4957587;28;20123;-74
2021/08/09 05:38:03;;;;;;;16.45;4.47;;;14.50;99.90;;;;;;4955812;28;20035;-74
2021/08/09 05:40:29;;;;;;;17.60;4.35;;;14.60;99.90;;;;;;4954699;28;20042;-74
2021/08/09 05:42:54;;;;;;;14.85;4.82;;;14.60;99.90;;;;;;4953939;28;20339;-74
2021/08/09 05:45:20;;;;;;;10.18;4.18;;;14.70;99.90;;;;;;4954785;28;20031;-73
2021/08/09 05:47:46;;;;;;;8.73;5.10;;;14.80;99.90;;;;;;4953900;28;20575;-74
2021/08/09 05:50:12;;;;;;;12.52;4.60;;;14.90;99.90;;;;;;4956736;28;20019;-74
2021/08/09 05:52:38;;;;;;;11.25;4.35;;;14.90;99.90;;;;;;4954364;28;20043;-73
2021/08/09 05:55:05;;;;;;;7.75;3.92;;;15.00;99.90;;;;;;4959600;28;20031;-75
2021/08/09 05:57:31;;;;;;;9.32;3.45;;;15.10;99.90;;;;;;4965755;28;20098;-76
2021/08/09 05:59:57;;;;;;;9.98;3.28;;;15.20;99.90;;;;;;4957655;28;20479;-73
2021/08/09 06:02:22;;;;;;;9.10;3.22;;;15.30;99.90;;;;;;4967579;28;20026;-75
2021/08/09 06:04:48;;;;;;;10.80;4.03;;;15.30;99.90;;;;;;4954449;28;20527;-75
2021/08/09 06:07:14;;;;;;;10.57;3.28;;;15.40;99.90;;;;;;4955727;28;20489;-75
2021/08/09 06:09:41;;;;;;;13.00;3.20;;;15.50;99.90;;;;;;4954354;28;20027;-74
2021/08/09 06:12:07;;;;;;;8.48;3.20;;;15.60;99.90;;;;;;4956316;28;20117;-74
2021/08/09 06:14:33;;;;;;;8.77;4.15;;;15.60;99.90;;;;;;4955735;28;20078;-74
2021/08/09 06:16:59;;;;;;;11.65;4.00;;;15.60;99.90;;;;;;4955022;28;20027;-74
2021/08/09 06:19:25;;;;;;;8.82;3.03;;;15.70;99.90;;;;;;4956929;28;20027;-74
2021/08/09 06:21:50;;;;;;;11.23;3.47;;;15.70;99.90;;;;;;4972609;28;20026;-76
2021/08/09 06:24:16;;;;;;;16.42;3.63;;;15.70;99.90;;;;;;4954944;28;20019;-75
2021/08/09 06:26:44;;;;;;;9.18;2.80;;;15.70;99.90;;;;;;4954327;28;20081;-75
2021/08/09 06:29:10;;;;;;;9.48;2.92;;;15.70;99.90;;;;;;4956455;28;20039;-75
2021/08/09 06:31:35;;;;;;;9.85;3.60;;;15.70;99.90;;;;;;4955382;28;20034;-76
2021/08/09 06:34:01;;;;;;;13.73;3.22;;;15.70;99.90;;;;;;4954270;28;20023;-74
2021/08/09 06:36:27;;;;;;;9.38;2.65;;;15.70;99.90;;;;;;4960263;28;20463;-75
2021/08/09 06:38:52;;;;;;;14.23;3.25;;;15.70;99.90;;;;;;4962796;28;20098;-73
2021/08/09 06:41:22;;;;;;;9.57;3.33;;;15.70;99.90;;;;;;4962189;28;20365;-76
2021/08/09 06:43:47;;;;;;;8.90;2.90;;;15.70;99.90;;;;;;4973006;28;20078;-75
2021/08/09 06:46:14;;;;;;;10.80;2.78;;;15.70;99.90;;;;;;4972363;28;20023;-74
2021/08/09 06:48:39;;;;;;;9.95;3.10;;;15.80;99.90;;;;;;4973201;28;20512;-74
2021/08/09 06:51:05;;;;;;;10.90;3.15;;;15.80;99.90;;;;;;4974722;28;20026;-74
2021/08/09 06:53:31;;;;;;;12.63;3.22;;;15.80;99.90;;;;;;4976106;28;20478;-74
2021/08/09 06:55:56;;;;;;;12.35;3.35;;;15.90;99.90;;;;;;4976751;28;20041;-74
2021/08/09 06:58:22;;;;;;;13.18;3.80;;;15.90;99.90;;;;;;4976595;28;20054;-74
2021/08/09 07:00:47;;;;;;;13.52;3.33;;;15.90;99.90;;;;;;4976086;28;20463;-74
2021/08/09 07:03:15;;;;;;;9.07;2.67;;;16.00;99.90;;;;;;4976684;28;20110;-74
2021/08/09 07:05:41;;;;;;;12.55;2.95;;;16.00;99.90;;;;;;4971095;28;20035;-75
2021/08/09 07:08:07;;;;;;;11.82;2.65;;;16.10;99.90;;;;;;4968257;28;20034;-76
2021/08/09 07:10:33;;;;;;;7.22;2.90;;;16.30;99.90;;;;;;4976567;28;20068;-74
2021/08/09 07:12:58;;;;;;;8.65;2.80;;;16.40;99.90;;;;;;4976096;28;20039;-75
2021/08/09 07:15:24;;;;;;;7.95;2.60;;;16.50;99.90;;;;;;4976262;28;20043;-75
2021/08/09 07:17:49;;;;;;;8.85;3.55;;;16.60;99.90;;;;;;4967224;28;20113;-74
2021/08/09 07:20:15;;;;;;;8.45;2.38;;;16.80;99.90;;;;;;4959624;28;20031;-74
2021/08/09 07:22:43;;;;;;;8.88;2.55;;;17.00;99.90;;;;;;4959259;28;20154;-76
2021/08/09 07:25:12;;;;;;;10.57;3.08;;;17.10;99.90;;;;;;4956654;28;20047;-76
2021/08/09 07:27:38;;;;;;;8.50;2.45;;;17.40;99.90;;;;;;4961970;28;20026;-74
2021/08/09 07:30:05;;;;;;;5.95;2.03;;;17.50;99.90;;;;;;4961333;28;20271;-75
2021/08/09 07:32:30;;;;;;;12.43;2.58;;;17.50;99.90;;;;;;4962208;28;20114;-75
2021/08/09 07:34:56;;;;;;;6.65;2.30;;;17.30;99.90;;;;;;4974309;28;20400;-75
2021/08/09 07:37:21;;;;;;;7.50;2.20;;;17.60;99.90;;;;;;4975753;28;20395;-75
2021/08/09 07:39:47;;;;;;;6.38;2.30;;;18.40;99.90;;;;;;4976019;28;20153;-75
2021/08/09 07:42:12;;;;;;;4.88;2.35;;;17.60;99.90;;;;;;4976103;28;20116;-78
2021/08/09 07:44:38;;;;;;;10.15;2.72;;;18.40;99.90;;;;;;4976325;28;20058;-77
2021/08/09 07:47:03;;;;;;;5.60;2.47;;;18.40;99.90;;;;;;4976242;28;20035;-77
2021/08/09 07:49:29;;;;;;;6.35;2.42;;;18.50;99.90;;;;;;4975915;28;20055;-77
2021/08/09 07:51:55;;;;;;;13.25;4.07;;;17.70;99.90;;;;;;4976654;28;20026;-77
2021/08/09 07:54:21;;;;;;;7.35;2.45;;;17.90;99.90;;;;;;4976351;28;20109;-77
2021/08/09 07:56:47;;;;;;;6.13;1.90;;;17.70;99.90;;;;;;4975225;28;20043;-78
2021/08/09 07:59:12;;;;;;;8.75;2.17;;;17.80;99.90;;;;;;4966762;28;20048;-78
2021/08/09 08:01:38;;;;;;;12.20;2.38;;;17.90;99.90;;;;;;4971504;28;20027;-77
2021/08/09 08:04:04;;;;;;;6.15;2.05;;;18.00;99.90;;;;;;4974711;28;20022;-78
2021/08/09 08:06:30;;;;;;;10.88;2.70;;;18.10;99.90;;;;;;4976009;28;20340;-79
2021/08/09 08:08:55;;;;;;;9.05;2.40;;;18.20;99.90;;;;;;4972883;28;20051;-77
2021/08/09 08:11:21;;;;;;;9.63;2.35;;;18.30;99.90;;;;;;4975244;28;20106;-77
2021/08/09 08:13:46;;;;;;;8.98;2.72;;;18.40;99.90;;;;;;4975983;28;20399;-76
2021/08/09 08:16:12;;;;;;;5.20;2.30;;;18.50;99.90;;;;;;4976316;28;20050;-77
2021/08/09 08:18:37;;;;;;;5.95;2.60;;;18.50;99.90;;;;;;4975444;28;20391;-78
2021/08/09 08:21:03;;;;;;;10.60;2.33;;;18.60;99.90;;;;;;4975637;28;20420;-79
2021/08/09 08:23:29;;;;;;;8.27;2.35;;;19.60;99.90;;;;;;4975026;28;20383;-77
2021/08/09 08:26:09;;;;;;;13.55;2.53;;;18.70;99.90;;;;;;4964348;28;20023;-79
2021/08/09 08:28:36;;;;;;;;;;;18.80;99.90;;;;;;4958023;28;20395;-78
2021/08/09 08:31:02;;;;;;;9.65;2.47;;;18.90;99.90;;;;;;4956422;28;19907;-78
2021/08/09 08:33:27;;;;;;;7.80;2.10;;;18.90;99.90;;;;;;4968941;28;20039;-78
2021/08/09 08:35:53;;;;;;;5.15;2.42;;;18.80;99.90;;;;;;4975093;28;20407;-78
2021/08/09 08:38:19;;;;;;;6.97;2.30;;;19.00;99.90;;;;;;4975326;28;20033;-78
2021/08/09 08:40:49;;;;;;;7.00;2.60;;;19.00;99.90;;;;;;4969742;28;20019;-70
2021/08/09 08:43:27;;;;;;;8.07;2.20;;;19.00;99.90;;;;;;4967502;28;20165;-70
2021/08/09 08:46:04;;;;;;;9.45;2.33;;;19.00;99.90;;;;;;4965118;28;20034;-77
2021/08/09 08:48:32;;;;;;;3.83;2.15;;;19.00;99.90;;;;;;4958365;28;20031;-76
2021/08/09 08:51:02;;;;;;;5.80;2.90;;;18.90;99.90;;;;;;4953018;28;20492;-76
2021/08/09 08:53:30;;;;;;;10.02;1.98;;;18.90;99.90;;;;;;4958349;28;20035;-78
2021/08/09 08:55:56;;;;;;;6.85;2.40;;;19.00;99.90;;;;;;4973500;28;20023;-75
2021/08/09 08:58:22;;;;;;;5.38;2.20;;;19.00;99.90;;;;;;4973376;28;20428;-77
2021/08/09 09:00:49;;;;;;;5.38;2.55;;;19.00;99.90;;;;;;4972767;28;20055;-76
2021/08/09 09:03:23;;;;;;;5.50;1.83;;;19.00;99.90;;;;;;4973619;28;20463;-77
2021/08/09 09:05:59;;;;;;;6.25;2.03;;;19.00;99.90;;;;;;4961306;28;20035;-77
2021/08/09 09:08:37;;;;;;;6.10;1.90;;;19.10;99.90;;;;;;4973579;28;20030;-79
2021/08/09 09:11:03;;;;;;;4.05;1.95;;;19.20;99.90;;;;;;4974349;28;20018;-77
2021/08/09 09:13:29;;;;;;;8.23;2.10;;;19.20;99.90;;;;;;4973454;28;20047;-75
2021/08/09 09:16:02;;;;;;;5.97;2.50;;;19.50;99.90;;;;;;4974511;28;20027;-77
2021/08/09 09:18:42;;;;;;;4.25;1.73;;;19.30;99.90;;;;;;4974505;28;20030;-77
2021/08/09 09:21:12;;;;;;;6.07;2.38;;;19.40;99.90;;;;;;4962220;28;20015;-76
2021/08/09 09:23:38;;;;;;;10.27;3.00;;;19.50;99.90;;;;;;4974740;28;20054;-77
2021/08/09 09:26:19;;;;;;;7.57;2.50;;;19.60;99.90;;;;;;4974053;28;20459;-76
2021/08/09 09:28:45;;;;;;;6.38;2.13;;;19.70;99.90;;;;;;4973323;28;20030;-77
2021/08/09 09:31:14;;;;;;;3.60;1.63;;;19.80;99.90;;;;;;4971412;28;20027;-75
2021/08/09 09:33:48;;;;;;;7.20;2.13;;;19.90;99.90;;;;;;4963494;28;20064;-77
2021/08/09 09:36:16;;;;;;;4.72;2.17;;;20.00;99.90;;;;;;4972342;28;20031;-77
2021/08/09 09:38:43;;;;;;;8.30;2.25;;;20.10;99.90;;;;;;4966339;28;20024;-77
2021/08/09 09:41:09;;;;;;;6.57;2.22;;;20.20;99.90;;;;;;4957708;28;20027;-78
2021/08/09 09:43:42;;;;;;;6.55;4.43;;;20.30;99.90;;;;;;4974139;28;20435;-77
2021/08/09 09:46:21;;;;;;;6.68;3.25;;;20.30;99.90;;;;;;4973380;28;20037;-76
2021/08/09 09:48:46;;;;;;;6.20;2.90;;;20.40;99.90;;;;;;4971723;28;20030;-76
2021/08/09 09:51:17;;;;;;;4.00;2.65;;;20.40;99.90;;;;;;4962223;28;20030;-77
2021/08/09 09:53:47;;;;;;;5.32;2.42;;;20.40;99.90;;;;;;4969899;28;20380;-76
2021/08/09 09:56:13;;;;;;;6.40;2.10;;;20.40;99.90;;;;;;4964199;28;20031;-76
2021/08/09 09:58:39;;;;;;;6.30;2.80;;;20.40;99.90;;;;;;4973407;28;20053;-76
2021/08/09 10:01:06;;;;;;;3.97;2.20;;;20.40;99.90;;;;;;4973600;28;20014;-77
2021/08/09 10:03:37;;;;;;;13.95;2.47;;;20.40;99.90;;;;;;4972999;28;20391;-75
2021/08/09 10:06:03;;;;;;;5.18;1.80;;;20.30;99.90;;;;;;4973837;28;20098;-76
2021/08/09 10:08:39;;;;;;;5.30;2.33;;;20.20;99.90;;;;;;4969449;28;20495;-77
2021/08/09 10:11:06;;;;;;;5.63;2.03;;;20.20;99.90;;;;;;4969021;28;20015;-76
2021/08/09 10:13:34;;;;;;;3.50;2.03;;;20.10;99.90;;;;;;4972205;28;20035;-76
2021/08/09 10:16:03;;;;;;;4.32;2.28;;;20.00;99.90;;;;;;4971102;28;20133;-75
2021/08/09 10:18:35;;;;;;;5.28;2.33;;;20.00;99.90;;;;;;4972175;28;20034;-75
2021/08/09 10:21:04;;;;;;;6.22;2.28;;;20.00;99.90;;;;;;4969959;28;20391;-76
2021/08/09 10:23:48;;;;;;;4.22;2.65;;;20.00;99.90;;;;;;4970879;28;20031;-77
2021/08/09 10:26:32;;;;;;;5.93;2.45;;;20.00;99.90;;;;;;4973248;28;20056;-76
2021/08/09 10:29:21;;;;;;;8.38;2.13;;;20.50;99.90;;;;;;4971297;28;20082;-77
2021/08/09 10:31:52;;;;;;;3.88;2.10;;;20.30;99.90;;;;;;4962281;28;20391;-78
2021/08/09 10:34:37;;;;;;;3.63;1.90;;;20.40;99.90;;;;;;4972126;28;20122;-76
2021/08/09 10:37:08;;;;;;;6.38;2.13;;;20.30;99.90;;;;;;4970851;28;20042;-76
2021/08/09 10:39:45;;;;;;;7.07;1.92;;;20.30;99.90;;;;;;4972186;28;20034;-77
2021/08/09 10:42:29;;;;;;;5.53;1.88;;;20.20;99.90;;;;;;4968109;28;20098;-75
2021/08/09 10:44:55;;;;;;;4.40;2.00;;;20.20;99.90;;;;;;4968426;28;20497;-76
2021/08/09 10:47:46;;;;;;;8.65;2.50;;;20.20;99.90;;;;;;4971496;28;20105;-77
2021/08/09 10:50:24;;;;;;;8.18;1.92;;;20.20;99.90;;;;;;4971297;28;20015;-77
2021/08/09 10:52:50;;;;;;;7.03;2.30;;;20.30;99.90;;;;;;4966721;28;20039;-77
2021/08/09 10:55:41;;;;;;;6.68;1.88;;;20.40;99.90;;;;;;4961627;28;20024;-77
2021/08/09 10:58:06;;;;;;;3.63;1.95;;;20.60;99.90;;;;;;4968611;28;20042;-76
2021/08/09 11:00:38;;;;;;;6.90;2.60;;;20.70;99.90;;;;;;4968258;28;20376;-76
2021/08/09 11:03:12;;;;;;;9.35;2.10;;;20.80;99.90;;;;;;4965067;28;20027;-76
2021/08/09 11:05:46;;;;;;;7.15;2.28;;;20.90;99.90;;;;;;4966624;28;20041;-76
2021/08/09 11:08:24;;;;;;;5.40;1.70;;;20.90;99.90;;;;;;4967010;28;20026;-77
2021/08/09 11:11:03;;;;;;;3.30;2.03;;;20.90;99.90;;;;;;4971003;28;20035;-77
2021/08/09 11:13:35;;;;;;;4.13;1.83;;;20.80;99.90;;;;;;4959572;28;20043;-76
2021/08/09 11:16:10;;;;;;;4.78;1.70;;;20.70;99.90;;;;;;4970591;28;20015;-77
2021/08/09 11:18:38;;;;;;;2.75;1.83;;;20.60;99.90;;;;;;4968015;28;20057;-77
2021/08/09 11:21:16;;;;;;;4.20;1.85;;;21.10;99.90;;;;;;4970429;28;20035;-75
2021/08/09 11:23:45;;;;;;;3.95;1.48;;;20.60;99.90;;;;;;4967157;28;20478;-76
2021/08/09 11:26:25;;;;;;;3.55;1.60;;;20.60;99.90;;;;;;4971008;28;20054;-77
2021/08/09 11:29:02;;;;;;;2.67;1.85;;;20.80;99.90;;;;;;4971118;28;20023;-77
2021/08/09 11:31:28;;;;;;;5.25;2.30;;;21.40;99.90;;;;;;4971134;28;20538;-76
2021/08/09 11:33:54;;;;;;;8.02;2.22;;;20.70;99.90;;;;;;4970214;28;20049;-75
2021/08/09 11:36:20;;;;;;;3.05;1.92;;;20.70;99.90;;;;;;4969372;28;20019;-76
2021/08/09 11:38:48;;;;;;;3.47;1.80;;;20.90;99.90;;;;;;4973894;28;20026;-76
2021/08/09 11:41:21;;;;;;;3.38;1.90;;;21.00;99.90;;;;;;4973085;28;20015;-76
2021/08/09 11:43:50;;;;;;;3.35;2.20;;;21.30;99.90;;;;;;4973313;28;20031;-76
2021/08/09 11:46:19;;;;;;;3.53;2.13;;;21.60;99.90;;;;;;4973338;28;20432;-76
2021/08/09 11:48:50;;;;;;;4.00;1.88;;;21.70;99.90;;;;;;4973950;28;20102;-76
2021/08/09 11:51:26;;;;;;;2.17;1.80;;;21.90;99.90;;;;;;4974477;28;20041;-75
2021/08/09 11:53:53;;;;;;;2.65;1.60;;;21.90;99.90;;;;;;4974079;28;20059;-77
2021/08/09 11:56:20;;;;;;;2.13;1.70;;;21.90;99.90;;;;;;4974165;28;20027;-77
2021/08/09 11:58:45;;;;;;;4.72;2.00;;;21.80;99.90;;;;;;4974111;28;20076;-75
2021/08/09 12:01:36;;;;;;;4.68;1.80;;;21.70;99.90;;;;;;4974487;28;20496;-76
2021/08/09 12:04:15;;;;;;;2.58;1.90;;;21.70;99.90;;;;;;4974077;28;20030;-77
2021/08/09 12:06:52;;;;;;;6.60;1.98;;;21.70;99.90;;;;;;4974017;28;20027;-76
2021/08/09 12:09:24;;;;;;;2.92;1.50;;;21.70;99.90;;;;;;4974300;28;20364;-76
2021/08/09 12:12:00;;;;;;;3.15;2.15;;;21.70;99.90;;;;;;4972380;28;20427;-77
2021/08/09 12:14:27;;;;;;;2.85;2.00;;;21.80;99.90;;;;;;4974519;28;20027;-77
2021/08/09 12:16:58;;;;;;;2.22;1.90;;;22.10;99.90;;;;;;4973183;28;20467;-75
2021/08/09 12:19:52;;;;;;;4.20;1.95;;;22.20;99.90;;;;;;4974071;28;20027;-75
2021/08/09 12:22:25;;;;;;;3.53;1.73;;;22.30;99.90;;;;;;4973343;28;20086;-75
2021/08/09 12:25:17;;;;;;;3.47;1.70;;;22.30;99.90;;;;;;4973242;28;20032;-75
2021/08/09 12:27:43;;;;;;;4.32;1.60;;;22.40;99.90;;;;;;4973959;28;20034;-74
2021/08/09 12:30:14;;;;;;;4.25;1.63;;;22.40;99.90;;;;;;4973316;28;20109;-76
2021/08/09 12:32:59;;;;;;;2.65;1.60;;;22.50;99.90;;;;;;4971928;28;20038;-76
2021/08/09 12:35:38;;;;;;;3.35;1.58;;;22.50;99.90;;;;;;4972065;28;20027;-77
2021/08/09 12:38:06;;;;;;;3.22;1.83;;;22.40;99.90;;;;;;4972866;28;20031;-76
2021/08/09 12:40:37;;;;;;;2.65;1.40;;;22.20;99.90;;;;;;4973867;28;20027;-76
2021/08/09 12:43:05;;;;;;;3.80;2.40;;;22.30;99.90;;;;;;4974686;28;20511;-76
2021/08/09 12:45:31;;;;;;;3.83;1.50;;;22.50;99.90;;;;;;4971446;28;20038;-76
2021/08/09 12:47:57;;;;;;;5.40;1.63;;;22.60;99.90;;;;;;4972894;28;20364;-75
2021/08/09 12:50:22;;;;;;;3.65;1.70;;;22.70;99.50;;;;;;4972499;28;20550;-75